sensor_id;sensor_type;location;lat;lon;timestamp;temperature;humidity
16666;DHT22;8446;50.99880500;6.25021400;2024-01-30T00:01:34;5.70;99.90
16666;DHT22;8446;50.99880500;6.25021400;2024-01-30T00:04:06;5.40;99.90
16666;DHT22;8446;50.99880500;6.25021400;2024-01-30T00:06:38;5.50;99.90
16666;DHT22;8446;50.99880500;6.25021400;2024-01-30T00:09:09;5.50;99.90
16666;DHT22;8446;50.99880500;6.25021400;2024-01-30T00:11:41;5.50;99.90
16666;DHT22;8446;50.99880500;6.25021400;2024-01-30T00:14:14;5.60;99.90
16666;DHT22;8446;50.99880500;6.25021400;2024-01-30T00:16:46;5.60;99.90
16666;DHT22;8446;50.99880500;6.25021400;2024-01-30T00:19:18;5.50;99.90
16666;DHT22;8446;50.99880500;6.25021400;2024-01-30T00:21:50;5.60;99.90
16666;DHT22;8446;50.99880500;6.25021400;2024-01-30T00:24:21;5.60;99.90
16666;DHT22;8446;50.99880500;6.25021400;2024-01-30T00:26:53;5.50;99.90
16666;DHT22;8446;50.99880500;6.25021400;2024-01-30T00:29:26;5.40;99.90
16666;DHT22;8446;50.99880500;6.25021400;2024-01-30T00:32:01;5.40;99.90
16666;DHT22;8446;50.99880500;6.25021400;2024-01-30T00:34:33;5.50;99.90
16666;DHT22;8446;50.99880500;6.25021400;2024-01-30T00:37:04;5.40;99.90
16666;DHT22;8446;50.99880500;6.25021400;2024-01-30T00:39:36;5.30;99.90
16666;DHT22;8446;50.99880500;6.25021400;2024-01-30T00:42:08;5.30;99.90
16666;DHT22;8446;50.99880500;6.25021400;2024-01-30T00:44:41;5.40;99.90
16666;DHT22;8446;50.99880500;6.25021400;2024-01-30T00:47:13;5.30;99.90
16666;DHT22;8446;50.99880500;6.25021400;2024-01-30T00:49:44;5.20;99.90
16666;DHT22;8446;50.99880500;6.25021400;2024-01-30T00:52:16;5.40;99.90
16666;DHT22;8446;50.99880500;6.25021400;2024-01-30T00:54:48;5.30;99.90
16666;DHT22;8446;50.99880500;6.25021400;2024-01-30T00:57:19;5.40;99.90
16666;DHT22;8446;50.99880500;6.25021400;2024-01-30T00:59:53;5.30;99.90
16666;DHT22;8446;50.99880500;6.25021400;2024-01-30T01:02:25;5.50;99.90
16666;DHT22;8446;50.99880500;6.25021400;2024-01-30T01:04:56;5.40;99.90
16666;DHT22;8446;50.99880500;6.25021400;2024-01-30T01:07:28;5.40;99.90
16666;DHT22;8446;50.99880500;6.25021400;2024-01-30T01:10:00;5.40;99.90
16666;DHT22;8446;50.99880500;6.25021400;2024-01-30T01:12:32;5.40;99.90
16666;DHT22;8446;50.99880500;6.25021400;2024-01-30T01:15:07;5.50;99.90
16666;DHT22;8446;50.99880500;6.25021400;2024-01-30T01:17:40;5.70;99.90
16666;DHT22;8446;50.99880500;6.25021400;2024-01-30T01:20:12;5.60;99.90
16666;DHT22;8446;50.99880500;6.25021400;2024-01-30T01:22:44;5.60;99.90
16666;DHT22;8446;50.99880500;6.25021400;2024-01-30T01:25:16;5.50;99.90
16666;DHT22;8446;50.99880500;6.25021400;2024-01-30T01:27:47;5.40;99.90
16666;DHT22;8446;50.99880500;6.25021400;2024-01-30T01:30:23;5.40;99.90
16666;DHT22;8446;50.99880500;6.25021400;2024-01-30T01:32:56;5.40;99.90
16666;DHT22;8446;50.99880500;6.25021400;2024-01-30T01:35:31;5.30;99.90
16666;DHT22;8446;50.99880500;6.25021400;2024-01-30T01:38:03;5.40;99.90
16666;DHT22;8446;50.99880500;6.25021400;2024-01-30T01:40:35;5.30;99.90
16666;DHT22;8446;50.99880500;6.25021400;2024-01-30T01:43:07;5.30;99.90
16666;DHT22;8446;50.99880500;6.25021400;2024-01-30T01:45:40;5.40;99.90
16666;DHT22;8446;50.99880500;6.25021400;2024-01-30T01:48:12;5.30;99.90
16666;DHT22;8446;50.99880500;6.25021400;2024-01-30T01:50:44;5.40;99.90
16666;DHT22;8446;50.99880500;6.25021400;2024-01-30T01:53:16;5.30;99.90
16666;DHT22;8446;50.99880500;6.25021400;2024-01-30T01:55:48;5.40;99.90
16666;DHT22;8446;50.99880500;6.25021400;2024-01-30T01:58:21;5.50;99.90
16666;DHT22;8446;50.99880500;6.25021400;2024-01-30T02:00:56;5.50;99.90
16666;DHT22;8446;50.99880500;6.25021400;2024-01-30T02:03:28;5.80;99.90
16666;DHT22;8446;50.99880500;6.25021400;2024-01-30T02:06:01;5.40;99.90
16666;DHT22;8446;50.99880500;6.25021400;2024-01-30T02:08:33;5.40;99.90
16666;DHT22;8446;50.99880500;6.25021400;2024-01-30T02:11:05;5.50;99.90
16666;DHT22;8446;50.99880500;6.25021400;2024-01-30T02:13:37;5.40;99.90
16666;DHT22;8446;50.99880500;6.25021400;2024-01-30T02:16:10;5.20;99.90
16666;DHT22;8446;50.99880500;6.25021400;2024-01-30T02:18:42;5.40;99.90
16666;DHT22;8446;50.99880500;6.25021400;2024-01-30T02:21:19;5.20;99.90
16666;DHT22;8446;50.99880500;6.25021400;2024-01-30T02:23:52;5.20;99.90
16666;DHT22;8446;50.99880500;6.25021400;2024-01-30T02:26:26;5.30;99.90
16666;DHT22;8446;50.99880500;6.25021400;2024-01-30T02:28:57;5.30;99.90
16666;DHT22;8446;50.99880500;6.25021400;2024-01-30T02:31:29;5.40;99.90
16666;DHT22;8446;50.99880500;6.25021400;2024-01-30T02:34:01;5.40;99.90
16666;DHT22;8446;50.99880500;6.25021400;2024-01-30T02:36:34;5.30;99.90
16666;DHT22;8446;50.99880500;6.25021400;2024-01-30T02:39:06;5.30;99.90
16666;DHT22;8446;50.99880500;6.25021400;2024-01-30T02:41:38;5.40;99.90
16666;DHT22;8446;50.99880500;6.25021400;2024-01-30T02:44:09;5.30;99.90
16666;DHT22;8446;50.99880500;6.25021400;2024-01-30T02:46:41;5.30;99.90
16666;DHT22;8446;50.99880500;6.25021400;2024-01-30T02:49:13;5.20;99.90
16666;DHT22;8446;50.99880500;6.25021400;2024-01-30T02:51:46;5.10;99.90
16666;DHT22;8446;50.99880500;6.25021400;2024-01-30T02:54:18;5.10;99.90
16666;DHT22;8446;50.99880500;6.25021400;2024-01-30T02:56:49;5.00;99.90
16666;DHT22;8446;50.99880500;6.25021400;2024-01-30T02:59:21;5.00;99.90
16666;DHT22;8446;50.99880500;6.25021400;2024-01-30T03:01:53;4.80;99.90
16666;DHT22;8446;50.99880500;6.25021400;2024-01-30T03:04:25;4.90;99.90
16666;DHT22;8446;50.99880500;6.25021400;2024-01-30T03:06:58;5.00;99.90
16666;DHT22;8446;50.99880500;6.25021400;2024-01-30T03:09:29;4.80;99.90
16666;DHT22;8446;50.99880500;6.25021400;2024-01-30T03:12:01;4.80;99.90
16666;DHT22;8446;50.99880500;6.25021400;2024-01-30T03:14:33;5.00;99.90
16666;DHT22;8446;50.99880500;6.25021400;2024-01-30T03:17:05;5.00;99.90
16666;DHT22;8446;50.99880500;6.25021400;2024-01-30T03:19:36;4.80;99.90
16666;DHT22;8446;50.99880500;6.25021400;2024-01-30T03:22:10;4.90;99.90
16666;DHT22;8446;50.99880500;6.25021400;2024-01-30T03:24:41;4.90;99.90
16666;DHT22;8446;50.99880500;6.25021400;2024-01-30T03:27:13;5.00;99.90
16666;DHT22;8446;50.99880500;6.25021400;2024-01-30T03:29:45;5.20;99.90
16666;DHT22;8446;50.99880500;6.25021400;2024-01-30T03:32:16;5.10;99.90
16666;DHT22;8446;50.99880500;6.25021400;2024-01-30T03:34:48;5.40;99.90
16666;DHT22;8446;50.99880500;6.25021400;2024-01-30T03:37:21;5.30;99.90
16666;DHT22;8446;50.99880500;6.25021400;2024-01-30T03:39:53;5.30;99.90
16666;DHT22;8446;50.99880500;6.25021400;2024-01-30T03:42:25;5.30;99.90
16666;DHT22;8446;50.99880500;6.25021400;2024-01-30T03:44:57;5.30;99.90
16666;DHT22;8446;50.99880500;6.25021400;2024-01-30T03:47:28;5.30;99.90
16666;DHT22;8446;50.99880500;6.25021400;2024-01-30T03:50:00;5.20;99.90
16666;DHT22;8446;50.99880500;6.25021400;2024-01-30T03:52:33;5.30;99.90
16666;DHT22;8446;50.99880500;6.25021400;2024-01-30T03:55:05;5.20;99.90
16666;DHT22;8446;50.99880500;6.25021400;2024-01-30T03:57:37;5.20;99.90
16666;DHT22;8446;50.99880500;6.25021400;2024-01-30T04:00:10;5.00;99.90
16666;DHT22;8446;50.99880500;6.25021400;2024-01-30T04:02:42;5.20;99.90
16666;DHT22;8446;50.99880500;6.25021400;2024-01-30T04:05:14;5.30;99.90
16666;DHT22;8446;50.99880500;6.25021400;2024-01-30T04:07:47;5.30;99.90
16666;DHT22;8446;50.99880500;6.25021400;2024-01-30T04:10:18;5.20;99.90
16666;DHT22;8446;50.99880500;6.25021400;2024-01-30T04:12:50;5.20;99.90
16666;DHT22;8446;50.99880500;6.25021400;2024-01-30T04:15:24;5.10;99.90
16666;DHT22;8446;50.99880500;6.25021400;2024-01-30T04:17:57;5.20;99.90
16666;DHT22;8446;50.99880500;6.25021400;2024-01-30T04:20:29;5.10;99.90
16666;DHT22;8446;50.99880500;6.25021400;2024-01-30T04:23:03;5.10;99.90
16666;DHT22;8446;50.99880500;6.25021400;2024-01-30T04:25:35;5.10;99.90
16666;DHT22;8446;50.99880500;6.25021400;2024-01-30T04:28:06;5.30;99.90
16666;DHT22;8446;50.99880500;6.25021400;2024-01-30T04:30:38;5.20;99.90
16666;DHT22;8446;50.99880500;6.25021400;2024-01-30T04:33:10;5.20;99.90
16666;DHT22;8446;50.99880500;6.25021400;2024-01-30T04:35:42;5.10;99.90
16666;DHT22;8446;50.99880500;6.25021400;2024-01-30T04:38:15;5.40;99.90
16666;DHT22;8446;50.99880500;6.25021400;2024-01-30T04:40:47;5.60;99.90
16666;DHT22;8446;50.99880500;6.25021400;2024-01-30T04:43:19;5.60;99.90
16666;DHT22;8446;50.99880500;6.25021400;2024-01-30T04:45:50;5.30;99.90
16666;DHT22;8446;50.99880500;6.25021400;2024-01-30T04:48:22;5.20;99.90
16666;DHT22;8446;50.99880500;6.25021400;2024-01-30T04:50:54;5.10;99.90
16666;DHT22;8446;50.99880500;6.25021400;2024-01-30T04:53:27;5.10;99.90
16666;DHT22;8446;50.99880500;6.25021400;2024-01-30T04:55:59;5.00;99.90
16666;DHT22;8446;50.99880500;6.25021400;2024-01-30T04:58:31;4.90;99.90
16666;DHT22;8446;50.99880500;6.25021400;2024-01-30T05:01:03;4.90;99.90
16666;DHT22;8446;50.99880500;6.25021400;2024-01-30T05:03:35;4.80;99.90
16666;DHT22;8446;50.99880500;6.25021400;2024-01-30T05:06:06;4.90;99.90
16666;DHT22;8446;50.99880500;6.25021400;2024-01-30T05:08:39;4.80;99.90
16666;DHT22;8446;50.99880500;6.25021400;2024-01-30T05:11:11;4.80;99.90
16666;DHT22;8446;50.99880500;6.25021400;2024-01-30T05:13:43;4.90;99.90
16666;DHT22;8446;50.99880500;6.25021400;2024-01-30T05:16:15;4.90;99.90
16666;DHT22;8446;50.99880500;6.25021400;2024-01-30T05:18:47;4.80;99.90
16666;DHT22;8446;50.99880500;6.25021400;2024-01-30T05:21:18;4.90;99.90
16666;DHT22;8446;50.99880500;6.25021400;2024-01-30T05:23:52;5.10;99.90
16666;DHT22;8446;50.99880500;6.25021400;2024-01-30T05:26:24;5.10;99.90
16666;DHT22;8446;50.99880500;6.25021400;2024-01-30T05:28:56;5.00;99.90
16666;DHT22;8446;50.99880500;6.25021400;2024-01-30T05:31:28;4.90;99.90
16666;DHT22;8446;50.99880500;6.25021400;2024-01-30T05:34:00;4.90;99.90
16666;DHT22;8446;50.99880500;6.25021400;2024-01-30T05:36:31;5.30;99.90
16666;DHT22;8446;50.99880500;6.25021400;2024-01-30T05:39:05;5.00;99.90
16666;DHT22;8446;50.99880500;6.25021400;2024-01-30T05:41:36;4.90;99.90
16666;DHT22;8446;50.99880500;6.25021400;2024-01-30T05:44:08;4.80;99.90
16666;DHT22;8446;50.99880500;6.25021400;2024-01-30T05:46:40;4.90;99.90
16666;DHT22;8446;50.99880500;6.25021400;2024-01-30T05:49:12;5.20;99.90
16666;DHT22;8446;50.99880500;6.25021400;2024-01-30T05:51:43;5.20;99.90
16666;DHT22;8446;50.99880500;6.25021400;2024-01-30T05:54:16;5.20;99.90
16666;DHT22;8446;50.99880500;6.25021400;2024-01-30T05:56:48;5.00;99.90
16666;DHT22;8446;50.99880500;6.25021400;2024-01-30T05:59:20;5.10;99.90
16666;DHT22;8446;50.99880500;6.25021400;2024-01-30T06:01:52;5.00;99.90
16666;DHT22;8446;50.99880500;6.25021400;2024-01-30T06:04:24;4.90;99.90
16666;DHT22;8446;50.99880500;6.25021400;2024-01-30T06:06:56;5.10;99.90
16666;DHT22;8446;50.99880500;6.25021400;2024-01-30T06:09:29;5.10;99.90
16666;DHT22;8446;50.99880500;6.25021400;2024-01-30T06:12:00;5.30;99.90
16666;DHT22;8446;50.99880500;6.25021400;2024-01-30T06:14:32;5.40;99.90
16666;DHT22;8446;50.99880500;6.25021400;2024-01-30T06:17:04;5.40;99.90
16666;DHT22;8446;50.99880500;6.25021400;2024-01-30T06:19:36;5.40;99.90
16666;DHT22;8446;50.99880500;6.25021400;2024-01-30T06:22:08;5.40;99.90
16666;DHT22;8446;50.99880500;6.25021400;2024-01-30T06:24:41;5.70;99.90
16666;DHT22;8446;50.99880500;6.25021400;2024-01-30T06:27:15;5.70;99.90
16666;DHT22;8446;50.99880500;6.25021400;2024-01-30T06:29:48;5.60;99.90
16666;DHT22;8446;50.99880500;6.25021400;2024-01-30T06:32:19;5.70;99.90
16666;DHT22;8446;50.99880500;6.25021400;2024-01-30T06:34:51;5.80;99.90
16666;DHT22;8446;50.99880500;6.25021400;2024-01-30T06:37:23;5.70;99.90
16666;DHT22;8446;50.99880500;6.25021400;2024-01-30T06:39:56;5.70;99.90
16666;DHT22;8446;50.99880500;6.25021400;2024-01-30T06:42:27;5.60;99.90
16666;DHT22;8446;50.99880500;6.25021400;2024-01-30T06:44:59;5.80;99.90
16666;DHT22;8446;50.99880500;6.25021400;2024-01-30T06:47:31;5.80;99.90
16666;DHT22;8446;50.99880500;6.25021400;2024-01-30T06:50:03;6.20;99.90
16666;DHT22;8446;50.99880500;6.25021400;2024-01-30T06:52:35;6.00;99.90
16666;DHT22;8446;50.99880500;6.25021400;2024-01-30T06:55:09;6.10;99.90
16666;DHT22;8446;50.99880500;6.25021400;2024-01-30T06:57:40;6.10;99.90
16666;DHT22;8446;50.99880500;6.25021400;2024-01-30T07:00:13;6.20;99.90
16666;DHT22;8446;50.99880500;6.25021400;2024-01-30T07:02:46;6.30;99.90
16666;DHT22;8446;50.99880500;6.25021400;2024-01-30T07:05:17;6.00;99.90
16666;DHT22;8446;50.99880500;6.25021400;2024-01-30T07:07:49;6.30;99.90
16666;DHT22;8446;50.99880500;6.25021400;2024-01-30T07:10:22;6.20;99.90
16666;DHT22;8446;50.99880500;6.25021400;2024-01-30T07:12:54;6.40;99.90
16666;DHT22;8446;50.99880500;6.25021400;2024-01-30T07:15:26;6.50;99.90
16666;DHT22;8446;50.99880500;6.25021400;2024-01-30T07:17:58;6.40;99.90
16666;DHT22;8446;50.99880500;6.25021400;2024-01-30T07:20:30;6.20;99.90
16666;DHT22;8446;50.99880500;6.25021400;2024-01-30T07:23:02;6.10;99.90
16666;DHT22;8446;50.99880500;6.25021400;2024-01-30T07:25:35;6.20;99.90
16666;DHT22;8446;50.99880500;6.25021400;2024-01-30T07:28:07;6.10;99.90
16666;DHT22;8446;50.99880500;6.25021400;2024-01-30T07:30:39;6.40;99.90
16666;DHT22;8446;50.99880500;6.25021400;2024-01-30T07:33:11;6.80;99.90
16666;DHT22;8446;50.99880500;6.25021400;2024-01-30T07:35:43;6.80;99.90
16666;DHT22;8446;50.99880500;6.25021400;2024-01-30T07:38:15;6.80;99.90
16666;DHT22;8446;50.99880500;6.25021400;2024-01-30T07:40:48;6.60;99.90
16666;DHT22;8446;50.99880500;6.25021400;2024-01-30T07:43:20;6.80;99.90
16666;DHT22;8446;50.99880500;6.25021400;2024-01-30T07:45:53;6.70;99.90
16666;DHT22;8446;50.99880500;6.25021400;2024-01-30T07:48:24;6.60;99.90
16666;DHT22;8446;50.99880500;6.25021400;2024-01-30T07:50:56;6.60;99.90
16666;DHT22;8446;50.99880500;6.25021400;2024-01-30T07:53:28;6.60;99.90
16666;DHT22;8446;50.99880500;6.25021400;2024-01-30T07:56:01;6.70;99.90
16666;DHT22;8446;50.99880500;6.25021400;2024-01-30T07:58:33;6.70;99.90
16666;DHT22;8446;50.99880500;6.25021400;2024-01-30T08:01:04;7.10;99.90
16666;DHT22;8446;50.99880500;6.25021400;2024-01-30T08:03:36;7.20;99.90
16666;DHT22;8446;50.99880500;6.25021400;2024-01-30T08:06:10;7.00;99.90
16666;DHT22;8446;50.99880500;6.25021400;2024-01-30T08:08:42;6.80;99.90
16666;DHT22;8446;50.99880500;6.25021400;2024-01-30T08:11:15;6.90;99.90
16666;DHT22;8446;50.99880500;6.25021400;2024-01-30T08:13:46;6.90;99.90
16666;DHT22;8446;50.99880500;6.25021400;2024-01-30T08:16:18;7.10;99.90
16666;DHT22;8446;50.99880500;6.25021400;2024-01-30T08:18:50;7.20;99.90
16666;DHT22;8446;50.99880500;6.25021400;2024-01-30T08:21:23;7.40;99.90
16666;DHT22;8446;50.99880500;6.25021400;2024-01-30T08:23:55;7.30;99.90
16666;DHT22;8446;50.99880500;6.25021400;2024-01-30T08:26:28;7.50;99.90
16666;DHT22;8446;50.99880500;6.25021400;2024-01-30T08:29:00;7.70;99.90
16666;DHT22;8446;50.99880500;6.25021400;2024-01-30T08:31:32;7.70;99.90
16666;DHT22;8446;50.99880500;6.25021400;2024-01-30T08:34:04;8.00;99.90
16666;DHT22;8446;50.99880500;6.25021400;2024-01-30T08:36:36;8.20;99.90
16666;DHT22;8446;50.99880500;6.25021400;2024-01-30T08:39:08;8.50;99.90
16666;DHT22;8446;50.99880500;6.25021400;2024-01-30T08:41:41;8.70;99.90
16666;DHT22;8446;50.99880500;6.25021400;2024-01-30T08:44:13;9.20;99.90
16666;DHT22;8446;50.99880500;6.25021400;2024-01-30T08:46:45;9.20;99.90
16666;DHT22;8446;50.99880500;6.25021400;2024-01-30T08:49:16;9.20;99.90
16666;DHT22;8446;50.99880500;6.25021400;2024-01-30T08:51:48;9.30;99.90
16666;DHT22;8446;50.99880500;6.25021400;2024-01-30T08:54:20;9.50;99.90
16666;DHT22;8446;50.99880500;6.25021400;2024-01-30T08:56:53;9.40;99.90
16666;DHT22;8446;50.99880500;6.25021400;2024-01-30T08:59:26;9.30;99.90
16666;DHT22;8446;50.99880500;6.25021400;2024-01-30T09:01:58;9.30;99.90
16666;DHT22;8446;50.99880500;6.25021400;2024-01-30T09:04:30;9.20;99.90
16666;DHT22;8446;50.99880500;6.25021400;2024-01-30T09:07:02;9.30;99.90
16666;DHT22;8446;50.99880500;6.25021400;2024-01-30T09:09:37;9.30;99.90
16666;DHT22;8446;50.99880500;6.25021400;2024-01-30T09:12:11;9.30;99.90
16666;DHT22;8446;50.99880500;6.25021400;2024-01-30T09:14:43;9.40;99.90
16666;DHT22;8446;50.99880500;6.25021400;2024-01-30T09:17:14;9.40;99.90
16666;DHT22;8446;50.99880500;6.25021400;2024-01-30T09:19:46;9.50;99.90
16666;DHT22;8446;50.99880500;6.25021400;2024-01-30T09:22:18;9.60;99.90
16666;DHT22;8446;50.99880500;6.25021400;2024-01-30T09:24:50;9.60;99.90
16666;DHT22;8446;50.99880500;6.25021400;2024-01-30T09:27:23;9.60;99.90
16666;DHT22;8446;50.99880500;6.25021400;2024-01-30T09:29:54;9.70;99.90
16666;DHT22;8446;50.99880500;6.25021400;2024-01-30T09:32:26;9.90;99.90
16666;DHT22;8446;50.99880500;6.25021400;2024-01-30T09:34:58;10.00;99.90
16666;DHT22;8446;50.99880500;6.25021400;2024-01-30T09:37:29;10.30;99.90
16666;DHT22;8446;50.99880500;6.25021400;2024-01-30T09:40:01;10.50;99.90
16666;DHT22;8446;50.99880500;6.25021400;2024-01-30T09:42:36;10.70;99.90
16666;DHT22;8446;50.99880500;6.25021400;2024-01-30T09:45:09;11.10;99.90
16666;DHT22;8446;50.99880500;6.25021400;2024-01-30T09:47:45;11.10;99.90
16666;DHT22;8446;50.99880500;6.25021400;2024-01-30T09:50:17;11.10;99.90
16666;DHT22;8446;50.99880500;6.25021400;2024-01-30T09:52:49;11.10;99.90
16666;DHT22;8446;50.99880500;6.25021400;2024-01-30T09:55:23;11.00;99.90
16666;DHT22;8446;50.99880500;6.25021400;2024-01-30T09:57:56;11.00;99.90
16666;DHT22;8446;50.99880500;6.25021400;2024-01-30T10:00:28;11.00;99.90
16666;DHT22;8446;50.99880500;6.25021400;2024-01-30T10:03:00;11.00;99.90
16666;DHT22;8446;50.99880500;6.25021400;2024-01-30T10:05:32;11.00;99.90
16666;DHT22;8446;50.99880500;6.25021400;2024-01-30T10:08:06;11.10;99.90
16666;DHT22;8446;50.99880500;6.25021400;2024-01-30T10:10:38;11.30;99.90
16666;DHT22;8446;50.99880500;6.25021400;2024-01-30T10:13:11;11.50;99.90
16666;DHT22;8446;50.99880500;6.25021400;2024-01-30T10:15:43;11.40;99.90
16666;DHT22;8446;50.99880500;6.25021400;2024-01-30T10:18:15;11.40;99.90
16666;DHT22;8446;50.99880500;6.25021400;2024-01-30T10:20:47;11.50;99.90
16666;DHT22;8446;50.99880500;6.25021400;2024-01-30T10:23:19;11.50;99.90
16666;DHT22;8446;50.99880500;6.25021400;2024-01-30T10:25:51;11.70;99.90
16666;DHT22;8446;50.99880500;6.25021400;2024-01-30T10:28:27;11.60;99.90
16666;DHT22;8446;50.99880500;6.25021400;2024-01-30T10:31:00;11.60;99.90
16666;DHT22;8446;50.99880500;6.25021400;2024-01-30T10:33:32;11.60;99.90
16666;DHT22;8446;50.99880500;6.25021400;2024-01-30T10:36:05;11.70;99.90
16666;DHT22;8446;50.99880500;6.25021400;2024-01-30T10:38:38;11.60;99.90
16666;DHT22;8446;50.99880500;6.25021400;2024-01-30T10:41:11;11.60;99.90
16666;DHT22;8446;50.99880500;6.25021400;2024-01-30T10:43:53;11.60;99.90
16666;DHT22;8446;50.99880500;6.25021400;2024-01-30T10:46:31;11.70;99.90
16666;DHT22;8446;50.99880500;6.25021400;2024-01-30T10:49:04;11.70;99.90
16666;DHT22;8446;50.99880500;6.25021400;2024-01-30T10:51:37;11.80;99.90
16666;DHT22;8446;50.99880500;6.25021400;2024-01-30T10:54:10;11.70;99.90
16666;DHT22;8446;50.99880500;6.25021400;2024-01-30T10:56:43;11.70;99.90
16666;DHT22;8446;50.99880500;6.25021400;2024-01-30T10:59:16;11.70;99.90
16666;DHT22;8446;50.99880500;6.25021400;2024-01-30T11:01:49;11.60;99.90
16666;DHT22;8446;50.99880500;6.25021400;2024-01-30T11:04:21;11.70;99.90
16666;DHT22;8446;50.99880500;6.25021400;2024-01-30T11:06:54;11.80;99.90
16666;DHT22;8446;50.99880500;6.25021400;2024-01-30T11:09:29;11.80;99.90
16666;DHT22;8446;50.99880500;6.25021400;2024-01-30T11:12:01;11.80;99.90
16666;DHT22;8446;50.99880500;6.25021400;2024-01-30T11:14:38;11.80;99.90
16666;DHT22;8446;50.99880500;6.25021400;2024-01-30T11:17:10;11.70;99.90
16666;DHT22;8446;50.99880500;6.25021400;2024-01-30T11:19:43;11.70;99.90
16666;DHT22;8446;50.99880500;6.25021400;2024-01-30T11:22:20;11.70;99.90
16666;DHT22;8446;50.99880500;6.25021400;2024-01-30T11:24:52;11.80;99.90
16666;DHT22;8446;50.99880500;6.25021400;2024-01-30T11:27:23;11.70;99.90
16666;DHT22;8446;50.99880500;6.25021400;2024-01-30T11:30:02;11.60;99.90
16666;DHT22;8446;50.99880500;6.25021400;2024-01-30T11:32:34;11.60;99.90
16666;DHT22;8446;50.99880500;6.25021400;2024-01-30T11:35:06;11.70;99.90
16666;DHT22;8446;50.99880500;6.25021400;2024-01-30T11:37:39;11.60;99.90
16666;DHT22;8446;50.99880500;6.25021400;2024-01-30T11:40:11;11.50;99.90
16666;DHT22;8446;50.99880500;6.25021400;2024-01-30T11:42:44;11.50;99.90
16666;DHT22;8446;50.99880500;6.25021400;2024-01-30T11:45:18;11.50;99.90
16666;DHT22;8446;50.99880500;6.25021400;2024-01-30T11:47:50;11.40;99.90
16666;DHT22;8446;50.99880500;6.25021400;2024-01-30T11:50:22;11.40;99.90
16666;DHT22;8446;50.99880500;6.25021400;2024-01-30T11:52:54;11.40;99.90
16666;DHT22;8446;50.99880500;6.25021400;2024-01-30T11:55:26;11.40;99.90
16666;DHT22;8446;50.99880500;6.25021400;2024-01-30T11:57:58;11.40;99.90
16666;DHT22;8446;50.99880500;6.25021400;2024-01-30T12:00:31;11.40;99.90
16666;DHT22;8446;50.99880500;6.25021400;2024-01-30T12:03:04;11.50;99.90
16666;DHT22;8446;50.99880500;6.25021400;2024-01-30T12:05:37;11.50;99.90
16666;DHT22;8446;50.99880500;6.25021400;2024-01-30T12:08:15;11.60;99.90
16666;DHT22;8446;50.99880500;6.25021400;2024-01-30T12:10:55;11.60;99.90
16666;DHT22;8446;50.99880500;6.25021400;2024-01-30T12:13:28;11.70;99.90
16666;DHT22;8446;50.99880500;6.25021400;2024-01-30T12:16:01;11.70;99.90
16666;DHT22;8446;50.99880500;6.25021400;2024-01-30T12:18:33;11.80;99.90
16666;DHT22;8446;50.99880500;6.25021400;2024-01-30T12:21:05;11.70;99.90
16666;DHT22;8446;50.99880500;6.25021400;2024-01-30T12:23:38;11.80;99.90
16666;DHT22;8446;50.99880500;6.25021400;2024-01-30T12:26:10;11.80;99.90
16666;DHT22;8446;50.99880500;6.25021400;2024-01-30T12:28:53;11.80;99.90
16666;DHT22;8446;50.99880500;6.25021400;2024-01-30T12:31:27;11.80;99.90
16666;DHT22;8446;50.99880500;6.25021400;2024-01-30T12:33:59;11.80;99.90
16666;DHT22;8446;50.99880500;6.25021400;2024-01-30T12:36:31;11.80;99.90
16666;DHT22;8446;50.99880500;6.25021400;2024-01-30T12:39:03;11.80;99.90
16666;DHT22;8446;50.99880500;6.25021400;2024-01-30T12:41:36;11.70;99.90
16666;DHT22;8446;50.99880500;6.25021400;2024-01-30T12:44:08;11.70;99.90
16666;DHT22;8446;50.99880500;6.25021400;2024-01-30T12:46:41;11.70;99.90
16666;DHT22;8446;50.99880500;6.25021400;2024-01-30T12:49:13;11.70;99.90
16666;DHT22;8446;50.99880500;6.25021400;2024-01-30T12:51:45;11.60;99.90
16666;DHT22;8446;50.99880500;6.25021400;2024-01-30T12:54:16;11.60;99.90
16666;DHT22;8446;50.99880500;6.25021400;2024-01-30T12:56:48;11.60;99.90
16666;DHT22;8446;50.99880500;6.25021400;2024-01-30T12:59:20;11.50;99.90
16666;DHT22;8446;50.99880500;6.25021400;2024-01-30T13:01:53;11.60;99.90
16666;DHT22;8446;50.99880500;6.25021400;2024-01-30T13:04:25;11.60;99.90
16666;DHT22;8446;50.99880500;6.25021400;2024-01-30T13:06:57;11.50;99.90
16666;DHT22;8446;50.99880500;6.25021400;2024-01-30T13:09:29;11.50;99.90
16666;DHT22;8446;50.99880500;6.25021400;2024-01-30T13:12:02;11.50;99.90
16666;DHT22;8446;50.99880500;6.25021400;2024-01-30T13:14:34;11.40;99.90
16666;DHT22;8446;50.99880500;6.25021400;2024-01-30T13:17:07;11.40;99.90
16666;DHT22;8446;50.99880500;6.25021400;2024-01-30T13:19:38;11.50;99.90
16666;DHT22;8446;50.99880500;6.25021400;2024-01-30T13:22:10;11.50;99.90
16666;DHT22;8446;50.99880500;6.25021400;2024-01-30T13:24:42;11.50;99.90
16666;DHT22;8446;50.99880500;6.25021400;2024-01-30T13:27:14;11.50;99.90
16666;DHT22;8446;50.99880500;6.25021400;2024-01-30T13:29:45;11.50;99.90
16666;DHT22;8446;50.99880500;6.25021400;2024-01-30T13:32:19;11.50;99.90
16666;DHT22;8446;50.99880500;6.25021400;2024-01-30T13:34:50;11.50;99.90
16666;DHT22;8446;50.99880500;6.25021400;2024-01-30T13:37:22;11.50;99.90
16666;DHT22;8446;50.99880500;6.25021400;2024-01-30T13:39:54;11.60;99.90
16666;DHT22;8446;50.99880500;6.25021400;2024-01-30T13:42:26;11.60;99.90
16666;DHT22;8446;50.99880500;6.25021400;2024-01-30T13:44:57;11.50;99.90
16666;DHT22;8446;50.99880500;6.25021400;2024-01-30T13:47:30;11.40;99.90
16666;DHT22;8446;50.99880500;6.25021400;2024-01-30T13:50:02;11.30;99.90
16666;DHT22;8446;50.99880500;6.25021400;2024-01-30T13:52:34;11.40;99.90
16666;DHT22;8446;50.99880500;6.25021400;2024-01-30T13:55:06;11.30;99.90
16666;DHT22;8446;50.99880500;6.25021400;2024-01-30T13:57:38;11.30;99.90
16666;DHT22;8446;50.99880500;6.25021400;2024-01-30T14:00:11;11.20;99.90
16666;DHT22;8446;50.99880500;6.25021400;2024-01-30T14:02:47;11.20;99.90
16666;DHT22;8446;50.99880500;6.25021400;2024-01-30T14:05:19;11.20;99.90
16666;DHT22;8446;50.99880500;6.25021400;2024-01-30T14:07:52;11.20;99.90
16666;DHT22;8446;50.99880500;6.25021400;2024-01-30T14:10:24;11.20;99.90